createdAt,value
2023-04-30T00:00:52.113Z,16.83
2023-04-30T00:02:58.483Z,17.00
2023-04-30T00:05:05.167Z,16.00
2023-04-30T00:07:12.499Z,15.73
2023-04-30T00:09:17.933Z,14.23
2023-04-30T00:11:31.510Z,15.90
2023-04-30T00:13:36.548Z,15.93
2023-04-30T00:15:42.322Z,15.88
2023-04-30T00:17:47.437Z,15.32
2023-04-30T00:19:53.252Z,15.05
2023-04-30T00:22:03.829Z,14.48
2023-04-30T00:24:09.500Z,15.18
2023-04-30T00:26:16.694Z,14.00
2023-04-30T00:28:27.959Z,13.70
2023-04-30T00:30:33.582Z,13.25
2023-04-30T00:32:40.042Z,14.77
2023-04-30T00:34:46.146Z,14.02
2023-04-30T00:36:51.231Z,14.98
2023-04-30T00:38:56.661Z,14.55
2023-04-30T00:41:04.725Z,13.65
2023-04-30T00:45:22.497Z,12.90
2023-04-30T00:47:29.151Z,15.77
2023-04-30T00:49:35.170Z,14.82
2023-04-30T00:51:48.459Z,15.10
2023-04-30T00:53:53.828Z,14.25
2023-04-30T00:55:59.934Z,16.15
2023-04-30T00:58:06.312Z,15.65
2023-04-30T01:00:14.062Z,15.02
2023-04-30T01:02:23.194Z,13.73
2023-04-30T01:04:28.506Z,12.65
2023-04-30T01:06:36.244Z,13.70
2023-04-30T01:08:42.414Z,13.93
2023-04-30T01:10:59.347Z,12.85
2023-04-30T01:13:13.449Z,13.45
2023-04-30T01:15:28.907Z,13.73
2023-04-30T01:17:45.033Z,14.32
2023-04-30T01:19:53.977Z,14.60
2023-04-30T01:22:05.667Z,14.80
2023-04-30T01:24:46.587Z,14.40
2023-04-30T01:27:17.219Z,14.35
2023-04-30T01:29:27.268Z,15.15
2023-04-30T01:31:39.067Z,13.80
2023-04-30T01:33:44.214Z,13.63
2023-04-30T01:36:19.914Z,13.80
2023-04-30T01:38:49.772Z,15.93
2023-04-30T01:41:06.237Z,17.42
2023-04-30T01:43:31.179Z,15.63
2023-04-30T01:46:01.848Z,15.90
2023-04-30T01:48:30.960Z,15.77
2023-04-30T01:50:52.393Z,14.65
2023-04-30T01:53:05.804Z,15.30
2023-04-30T01:55:16.918Z,16.38
2023-04-30T01:57:32.309Z,15.35
2023-04-30T01:59:42.803Z,15.40
2023-04-30T02:01:52.940Z,16.25
2023-04-30T02:03:59.406Z,14.38
2023-04-30T02:06:05.053Z,14.48
2023-04-30T02:08:15.546Z,14.68
2023-04-30T02:10:23.741Z,14.68
2023-04-30T02:12:33.018Z,14.68
2023-04-30T02:14:40.946Z,13.68
2023-04-30T02:16:46.058Z,14.93
2023-04-30T02:18:54.439Z,14.40
2023-04-30T02:21:00.483Z,16.60
2023-04-30T02:23:08.357Z,17.17
2023-04-30T02:25:14.424Z,15.60
2023-04-30T02:27:22.756Z,15.00
2023-04-30T02:29:27.972Z,15.50
2023-04-30T02:31:35.586Z,14.85
2023-04-30T02:33:41.904Z,14.85
2023-04-30T02:35:52.213Z,15.43
2023-04-30T02:37:58.184Z,15.18
2023-04-30T02:40:05.323Z,14.77
2023-04-30T02:42:14.058Z,15.60
2023-04-30T02:44:22.124Z,14.82
2023-04-30T02:48:38.291Z,14.73
2023-04-30T02:50:44.693Z,14.88
2023-04-30T02:52:56.992Z,14.25
2023-04-30T02:55:04.748Z,14.90
2023-04-30T02:57:13.889Z,15.85
2023-04-30T02:59:23.182Z,15.10
2023-04-30T03:01:33.806Z,15.43
2023-04-30T03:03:40.302Z,14.52
2023-04-30T03:05:47.322Z,14.00
2023-04-30T03:07:55.926Z,14.27
2023-04-30T03:10:03.068Z,14.13
2023-04-30T03:12:13.438Z,14.00
2023-04-30T03:14:18.736Z,14.57
2023-04-30T03:16:24.871Z,14.18
2023-04-30T03:18:31.134Z,13.93
2023-04-30T03:20:36.456Z,15.02
2023-04-30T03:22:42.012Z,14.25
2023-04-30T03:24:51.101Z,13.82
2023-04-30T03:29:02.497Z,14.70
2023-04-30T03:31:11.137Z,14.15
2023-04-30T03:33:16.555Z,14.40
2023-04-30T03:35:25.390Z,15.20
2023-04-30T03:37:30.838Z,15.85
2023-04-30T03:39:40.512Z,16.63
2023-04-30T03:41:49.426Z,16.35
2023-04-30T03:43:54.736Z,17.65
2023-04-30T03:46:01.297Z,16.95
2023-04-30T03:48:07.031Z,14.75
2023-04-30T03:50:14.428Z,12.88
2023-04-30T03:52:19.645Z,14.48
2023-04-30T03:54:30.611Z,13.43
2023-04-30T03:56:36.142Z,11.93
2023-04-30T03:58:49.443Z,12.93
2023-04-30T04:00:55.701Z,14.23
2023-04-30T04:03:02.770Z,15.77
2023-04-30T04:05:10.042Z,19.48
2023-04-30T04:07:18.063Z,18.30
2023-04-30T04:09:26.172Z,17.75
2023-04-30T04:11:32.447Z,22.88
2023-04-30T04:13:37.507Z,22.70
2023-04-30T04:15:46.926Z,22.95
2023-04-30T04:17:54.279Z,21.98
2023-04-30T04:19:59.773Z,22.08
2023-04-30T04:22:05.411Z,20.75
2023-04-30T04:24:15.359Z,20.08
2023-04-30T04:26:25.799Z,18.50
2023-04-30T04:28:35.961Z,18.48
2023-04-30T04:30:42.225Z,17.63
2023-04-30T04:32:54.550Z,18.13
2023-04-30T04:34:59.991Z,17.08
2023-04-30T04:37:06.089Z,17.80
2023-04-30T04:39:12.052Z,18.40
2023-04-30T04:41:17.101Z,18.15
2023-04-30T04:43:22.763Z,18.67
2023-04-30T04:45:28.840Z,19.08
2023-04-30T04:47:34.660Z,19.23
2023-04-30T04:49:42.300Z,20.15
2023-04-30T04:51:47.340Z,20.67
2023-04-30T04:53:56.188Z,20.67
2023-04-30T04:56:01.338Z,19.33
2023-04-30T04:58:06.839Z,19.65
2023-04-30T05:00:13.490Z,18.92
2023-04-30T05:02:18.491Z,20.38
2023-04-30T05:04:24.084Z,19.65
2023-04-30T05:06:32.296Z,19.77
2023-04-30T05:08:38.559Z,19.20
2023-04-30T05:10:44.890Z,19.92
2023-04-30T05:12:53.013Z,17.02
2023-04-30T05:14:58.360Z,15.15
2023-04-30T05:17:03.560Z,16.88
2023-04-30T05:19:09.916Z,17.13
2023-04-30T05:21:17.087Z,17.92
2023-04-30T05:23:24.725Z,17.88
2023-04-30T05:25:30.346Z,17.70
2023-04-30T05:27:36.824Z,16.77
2023-04-30T05:29:44.606Z,18.23
2023-04-30T05:31:51.119Z,17.60
2023-04-30T05:33:56.173Z,17.73
2023-04-30T05:36:01.463Z,17.70
2023-04-30T05:38:08.191Z,17.58
2023-04-30T05:40:18.648Z,17.30
2023-04-30T05:42:24.161Z,17.08
2023-04-30T05:44:33.141Z,17.50
2023-04-30T05:46:38.588Z,17.02
2023-04-30T05:48:43.720Z,17.83
2023-04-30T05:50:50.214Z,20.05
2023-04-30T05:55:04.244Z,16.98
2023-04-30T05:57:11.941Z,19.13
2023-04-30T05:59:17.264Z,18.88
2023-04-30T06:01:29.302Z,18.85
2023-04-30T06:03:34.760Z,16.77
2023-04-30T06:05:41.766Z,18.00
2023-04-30T06:07:47.973Z,16.45
2023-04-30T06:09:54.399Z,17.33
2023-04-30T06:12:06.677Z,17.85
2023-04-30T06:14:14.903Z,17.58
2023-04-30T06:16:20.847Z,18.33
2023-04-30T06:18:26.322Z,17.20
2023-04-30T06:20:31.351Z,17.17
2023-04-30T06:22:42.262Z,16.80
2023-04-30T06:24:47.288Z,17.27
2023-04-30T06:26:55.508Z,17.90
2023-04-30T06:31:08.455Z,15.95
2023-04-30T06:33:13.502Z,15.75
2023-04-30T06:35:24.220Z,17.27
2023-04-30T06:37:32.413Z,18.15
2023-04-30T06:39:40.806Z,17.27
2023-04-30T06:41:50.399Z,17.15
2023-04-30T06:43:57.644Z,18.15
2023-04-30T06:46:02.748Z,15.43
2023-04-30T06:48:11.783Z,14.98
2023-04-30T06:50:18.777Z,15.23
2023-04-30T06:52:26.472Z,15.37
2023-04-30T06:54:33.627Z,15.20
2023-04-30T06:56:40.444Z,14.82
2023-04-30T06:58:51.891Z,15.52
2023-04-30T07:00:58.111Z,14.63
2023-04-30T07:03:07.081Z,15.43
2023-04-30T07:05:16.501Z,15.60
2023-04-30T07:07:25.299Z,15.95
2023-04-30T07:09:30.348Z,15.50
2023-04-30T07:11:37.166Z,15.55
2023-04-30T07:13:42.692Z,15.60
2023-04-30T07:15:48.006Z,16.08
2023-04-30T07:17:53.399Z,16.10
2023-04-30T07:19:58.486Z,14.18
2023-04-30T07:22:11.346Z,14.85
2023-04-30T07:24:17.594Z,14.65
2023-04-30T07:26:25.175Z,13.32
2023-04-30T07:28:36.181Z,13.35
2023-04-30T07:30:41.320Z,13.10
2023-04-30T07:32:49.099Z,12.57
2023-04-30T07:34:54.142Z,13.23
2023-04-30T07:37:01.319Z,12.13
2023-04-30T07:39:12.096Z,12.57
2023-04-30T07:41:19.750Z,12.93
2023-04-30T07:45:31.468Z,12.18
2023-04-30T07:47:36.787Z,11.90
2023-04-30T07:49:41.861Z,12.07
2023-04-30T07:52:01.931Z,10.77
2023-04-30T07:54:10.600Z,10.38
2023-04-30T07:56:16.340Z,9.57
2023-04-30T07:58:22.407Z,9.95
2023-04-30T08:00:29.573Z,9.25
2023-04-30T08:02:40.796Z,8.55
2023-04-30T08:04:46.184Z,9.80
2023-04-30T08:06:53.871Z,8.32
2023-04-30T08:11:16.369Z,6.07
2023-04-30T08:13:21.685Z,6.05
2023-04-30T08:15:27.598Z,5.60
2023-04-30T08:17:33.859Z,4.82
2023-04-30T08:19:40.396Z,4.63
2023-04-30T08:21:46.228Z,4.97
2023-04-30T08:23:54.825Z,5.15
2023-04-30T08:25:59.994Z,5.13
2023-04-30T08:28:09.802Z,4.65
2023-04-30T08:30:17.135Z,4.22
2023-04-30T08:32:25.202Z,4.03
2023-04-30T08:36:38.315Z,4.25
2023-04-30T08:38:44.624Z,3.95
2023-04-30T08:40:55.475Z,3.35
2023-04-30T08:43:12.417Z,3.03
2023-04-30T08:45:17.438Z,3.70
2023-04-30T08:47:24.938Z,4.00
2023-04-30T08:49:37.356Z,3.45
2023-04-30T08:51:45.883Z,3.60
2023-04-30T08:53:53.357Z,3.17
2023-04-30T08:55:59.555Z,3.10
2023-04-30T08:58:05.892Z,3.58
2023-04-30T09:00:15.801Z,3.20
2023-04-30T09:02:21.045Z,2.78
2023-04-30T09:04:26.633Z,2.55
2023-04-30T09:06:34.717Z,2.70
2023-04-30T09:08:47.518Z,2.40
2023-04-30T09:10:52.574Z,2.25
2023-04-30T09:13:04.427Z,2.72
2023-04-30T09:15:16.035Z,2.10
2023-04-30T09:17:25.844Z,1.52
2023-04-30T09:19:33.799Z,1.70
2023-04-30T09:21:48.106Z,1.85
2023-04-30T09:24:03.167Z,1.40
2023-04-30T09:26:08.387Z,1.40
2023-04-30T09:28:17.353Z,1.73
2023-04-30T09:30:42.209Z,1.40
2023-04-30T09:33:00.748Z,0.95
2023-04-30T09:35:11.878Z,1.00
2023-04-30T09:37:18.701Z,1.10
2023-04-30T09:39:24.433Z,1.17
2023-04-30T09:41:33.995Z,1.30
2023-04-30T09:43:48.355Z,1.00
2023-04-30T09:46:01.036Z,1.23
2023-04-30T09:48:16.404Z,0.90
2023-04-30T09:50:23.147Z,0.80
2023-04-30T09:52:29.279Z,0.90
2023-04-30T09:54:36.253Z,1.20
2023-04-30T09:56:44.369Z,0.52
2023-04-30T09:58:54.949Z,0.55
2023-04-30T10:01:04.958Z,0.40
2023-04-30T10:03:12.465Z,0.60
2023-04-30T10:05:19.734Z,0.50
2023-04-30T10:07:34.123Z,0.40
2023-04-30T10:09:47.044Z,0.50
2023-04-30T10:11:57.075Z,0.90
2023-04-30T10:14:06.026Z,0.43
2023-04-30T10:16:29.425Z,0.70
2023-04-30T10:18:40.014Z,0.70
2023-04-30T10:20:49.556Z,0.30
2023-04-30T10:22:56.320Z,0.40
2023-04-30T10:25:02.588Z,0.38
2023-04-30T10:27:08.034Z,0.40
2023-04-30T10:29:16.281Z,0.30
2023-04-30T10:31:26.048Z,0.20
2023-04-30T10:33:49.807Z,0.20
2023-04-30T10:36:04.690Z,0.40
2023-04-30T10:38:24.115Z,0.25
2023-04-30T10:40:30.514Z,0.43
2023-04-30T10:42:39.032Z,0.45
2023-04-30T10:44:45.123Z,0.35
2023-04-30T10:46:53.162Z,0.47
2023-04-30T10:49:01.476Z,0.60
2023-04-30T10:51:09.064Z,0.60
2023-04-30T10:53:19.392Z,0.47
2023-04-30T10:55:26.132Z,0.63
2023-04-30T10:57:34.358Z,0.50
2023-04-30T10:59:50.713Z,0.50
2023-04-30T11:02:03.750Z,0.55
2023-04-30T11:04:14.039Z,0.40
2023-04-30T11:06:29.683Z,0.43
2023-04-30T11:08:39.162Z,0.47
2023-04-30T11:11:02.893Z,0.70
2023-04-30T11:13:12.061Z,0.40
2023-04-30T11:15:20.169Z,0.50
2023-04-30T11:17:32.772Z,0.52
2023-04-30T11:19:37.870Z,0.50
2023-04-30T11:21:44.775Z,0.50
2023-04-30T11:23:52.779Z,0.83
2023-04-30T11:26:01.180Z,0.60
2023-04-30T11:28:06.919Z,0.70
2023-04-30T11:30:17.372Z,0.75
2023-04-30T11:32:23.797Z,0.63
2023-04-30T11:34:33.450Z,0.60
2023-04-30T11:36:39.021Z,0.50
2023-04-30T11:38:45.955Z,0.50
2023-04-30T11:40:51.793Z,0.70
2023-04-30T11:43:00.717Z,0.60
2023-04-30T11:45:13.313Z,0.60
2023-04-30T11:47:21.656Z,0.82
2023-04-30T11:49:29.719Z,0.70
2023-04-30T11:51:44.448Z,0.52
2023-04-30T11:53:51.504Z,0.68
2023-04-30T11:55:57.969Z,0.60
2023-04-30T11:58:03.919Z,0.77
2023-04-30T12:00:18.334Z,0.57
2023-04-30T12:02:23.744Z,0.63
2023-04-30T12:04:30.296Z,0.60
2023-04-30T12:06:41.698Z,0.65
2023-04-30T12:08:49.720Z,1.05
2023-04-30T12:10:59.462Z,0.80
2023-04-30T12:13:05.880Z,0.68
2023-04-30T12:15:25.598Z,0.80
2023-04-30T12:17:37.822Z,0.77
2023-04-30T12:19:42.936Z,0.73
2023-04-30T12:21:58.824Z,0.63
2023-04-30T12:24:04.447Z,0.90
2023-04-30T12:26:11.360Z,1.08
2023-04-30T12:28:18.516Z,0.90
2023-04-30T12:30:28.159Z,0.70
2023-04-30T12:32:35.002Z,0.90
2023-04-30T12:34:41.558Z,0.63
2023-04-30T12:36:46.820Z,0.85
2023-04-30T12:39:06.743Z,0.60
2023-04-30T12:41:20.040Z,0.80
2023-04-30T12:43:27.589Z,0.60
2023-04-30T12:45:51.663Z,0.70
2023-04-30T12:47:57.319Z,0.80
2023-04-30T12:50:02.792Z,0.60
2023-04-30T12:52:11.626Z,0.63
2023-04-30T12:54:27.920Z,0.80
2023-04-30T12:56:32.953Z,0.80
2023-04-30T12:58:40.906Z,1.20
2023-04-30T13:00:51.526Z,0.80
2023-04-30T13:02:59.057Z,0.57
2023-04-30T13:05:04.319Z,0.82
2023-04-30T13:07:09.895Z,0.50
2023-04-30T13:09:16.209Z,0.60
2023-04-30T13:11:26.459Z,0.75
2023-04-30T13:13:33.828Z,0.40
2023-04-30T13:15:40.810Z,0.50
2023-04-30T13:17:45.967Z,0.43
2023-04-30T13:19:51.233Z,0.50
2023-04-30T13:21:57.319Z,0.50
2023-04-30T13:24:04.848Z,0.30
2023-04-30T13:26:09.891Z,0.43
2023-04-30T13:28:18.703Z,0.60
2023-04-30T13:30:26.195Z,0.70
2023-04-30T13:32:34.575Z,0.70
2023-04-30T13:34:39.605Z,0.55
2023-04-30T13:36:46.950Z,0.60
2023-04-30T13:40:58.962Z,0.50
2023-04-30T13:43:04.447Z,0.52
2023-04-30T13:45:14.988Z,0.93
2023-04-30T13:47:19.982Z,0.30
2023-04-30T13:49:25.035Z,0.57
2023-04-30T13:51:33.358Z,0.60
2023-04-30T13:53:38.801Z,0.70
2023-04-30T13:55:43.961Z,0.60
2023-04-30T13:57:50.529Z,0.60
2023-04-30T13:59:58.356Z,0.50
2023-04-30T14:02:06.203Z,0.88
2023-04-30T14:04:12.661Z,0.60
2023-04-30T14:08:24.308Z,0.40
2023-04-30T14:10:29.492Z,0.60
2023-04-30T14:12:46.861Z,0.70
2023-04-30T14:14:51.887Z,0.45
2023-04-30T14:16:57.848Z,0.70
2023-04-30T14:19:08.069Z,0.45
2023-04-30T14:21:14.650Z,0.45
2023-04-30T14:23:21.415Z,0.47
2023-04-30T14:25:27.907Z,0.50
2023-04-30T14:27:35.597Z,0.60
2023-04-30T14:29:43.045Z,2.80
2023-04-30T14:31:51.531Z,1.00
2023-04-30T14:33:58.948Z,3.67
2023-04-30T14:36:08.014Z,0.70
2023-04-30T14:38:15.207Z,1.00
2023-04-30T14:40:20.376Z,0.70
2023-04-30T14:42:26.841Z,0.68
2023-04-30T14:44:32.603Z,1.10
2023-04-30T14:46:37.875Z,0.63
2023-04-30T14:48:45.373Z,0.50
2023-04-30T14:50:52.054Z,0.60
2023-04-30T14:53:00.351Z,0.50
2023-04-30T14:55:06.584Z,0.60
2023-04-30T14:57:12.735Z,0.80
2023-04-30T14:59:20.761Z,0.70
2023-04-30T15:01:28.390Z,2.20
2023-04-30T15:03:35.694Z,0.90
2023-04-30T15:05:43.039Z,3.70
2023-04-30T15:07:48.100Z,17.60
2023-04-30T15:09:56.977Z,11.02
2023-04-30T15:12:02.620Z,3.85
2023-04-30T15:14:09.290Z,1.70
2023-04-30T15:16:15.895Z,2.20
2023-04-30T15:18:21.047Z,2.30
2023-04-30T15:20:26.183Z,1.52
2023-04-30T15:22:37.074Z,1.38
2023-04-30T15:24:42.382Z,3.97
2023-04-30T15:26:51.523Z,1.60
2023-04-30T15:28:57.809Z,1.33
2023-04-30T15:31:04.209Z,0.80
2023-04-30T15:33:09.586Z,5.70
2023-04-30T15:35:21.394Z,16.95
2023-04-30T15:37:34.069Z,7.60
2023-04-30T15:39:39.747Z,5.93
2023-04-30T15:41:52.529Z,3.10
2023-04-30T15:43:57.565Z,1.90
2023-04-30T15:46:03.453Z,5.55
2023-04-30T15:48:09.150Z,1.05
2023-04-30T15:50:16.687Z,0.90
2023-04-30T15:52:22.844Z,1.05
2023-04-30T15:54:28.691Z,1.10
2023-04-30T15:56:34.912Z,1.45
2023-04-30T15:58:43.733Z,1.90
2023-04-30T16:00:49.260Z,0.90
2023-04-30T16:02:55.291Z,1.38
2023-04-30T16:05:03.452Z,1.05
2023-04-30T16:07:09.071Z,2.17
2023-04-30T16:09:19.765Z,0.95
2023-04-30T16:11:25.458Z,1.05
2023-04-30T16:13:36.788Z,6.07
2023-04-30T16:15:45.504Z,4.28
2023-04-30T16:17:51.283Z,2.10
2023-04-30T16:19:56.567Z,2.30
2023-04-30T16:22:03.963Z,2.72
2023-04-30T16:24:10.494Z,2.45
2023-04-30T16:26:16.014Z,3.97
2023-04-30T16:28:23.633Z,3.17
2023-04-30T16:30:28.875Z,2.00
2023-04-30T16:32:49.385Z,0.80
2023-04-30T16:34:56.751Z,1.20
2023-04-30T16:37:03.747Z,1.00
2023-04-30T16:39:11.504Z,1.02
2023-04-30T16:41:19.014Z,0.90
2023-04-30T16:45:30.439Z,1.02
2023-04-30T16:47:41.283Z,0.75
2023-04-30T16:49:46.464Z,0.85
2023-04-30T16:51:51.622Z,0.95
2023-04-30T16:53:56.929Z,1.00
2023-04-30T16:56:03.352Z,0.82
2023-04-30T16:58:09.784Z,1.50
2023-04-30T17:00:17.783Z,2.97
2023-04-30T17:02:24.924Z,1.63
2023-04-30T17:04:33.176Z,1.02
2023-04-30T17:06:38.764Z,1.20
2023-04-30T17:08:43.815Z,1.05
2023-04-30T17:10:52.517Z,1.10
2023-04-30T17:12:59.530Z,1.20
2023-04-30T17:15:08.066Z,0.95
2023-04-30T17:17:16.272Z,1.10
2023-04-30T17:19:22.780Z,1.00
2023-04-30T17:21:34.112Z,1.07
2023-04-30T17:23:40.521Z,1.13
2023-04-30T17:25:45.786Z,1.63
2023-04-30T17:27:52.673Z,2.53
2023-04-30T17:29:58.012Z,1.42
2023-04-30T17:32:06.452Z,0.90
2023-04-30T17:34:14.676Z,1.20
2023-04-30T17:36:19.933Z,0.90
2023-04-30T17:38:28.794Z,1.08
2023-04-30T17:40:34.374Z,0.88
2023-04-30T17:42:39.712Z,1.20
2023-04-30T17:44:44.734Z,1.08
2023-04-30T17:46:50.191Z,1.08
2023-04-30T17:48:55.305Z,1.23
2023-04-30T17:51:00.466Z,1.10
2023-04-30T17:53:09.015Z,1.42
2023-04-30T17:55:18.008Z,1.55
2023-04-30T17:57:23.323Z,1.20
2023-04-30T17:59:30.931Z,1.23
2023-04-30T18:01:36.126Z,1.10
2023-04-30T18:03:43.206Z,1.17
2023-04-30T18:05:53.569Z,1.05
2023-04-30T18:07:58.551Z,1.13
2023-04-30T18:10:06.576Z,1.48
2023-04-30T18:12:14.384Z,1.40
2023-04-30T18:14:20.083Z,1.17
2023-04-30T18:16:32.574Z,1.10
2023-04-30T18:18:41.151Z,1.23
2023-04-30T18:20:52.045Z,1.40
2023-04-30T18:22:57.103Z,1.35
2023-04-30T18:25:02.449Z,1.30
2023-04-30T18:27:16.616Z,1.55
2023-04-30T18:29:26.192Z,1.58
2023-04-30T18:31:39.390Z,1.67
2023-04-30T18:33:48.795Z,1.60
2023-04-30T18:35:54.147Z,1.60
2023-04-30T18:38:02.928Z,1.65
2023-04-30T18:40:10.664Z,1.60
2023-04-30T18:42:20.928Z,1.40
2023-04-30T18:44:34.094Z,1.30
2023-04-30T18:46:41.648Z,1.50
2023-04-30T18:48:47.166Z,1.27
2023-04-30T18:50:55.558Z,1.80
2023-04-30T18:53:10.751Z,1.63
2023-04-30T18:55:16.406Z,2.25
2023-04-30T18:57:26.453Z,2.13
2023-04-30T18:59:33.692Z,1.92
2023-04-30T19:01:41.607Z,1.83
2023-04-30T19:03:47.049Z,2.00
2023-04-30T19:05:59.559Z,2.08
2023-04-30T19:08:05.103Z,1.90
2023-04-30T19:10:11.747Z,2.30
2023-04-30T19:12:17.431Z,2.17
2023-04-30T19:14:25.891Z,2.45
2023-04-30T19:16:38.481Z,2.20
2023-04-30T19:18:45.159Z,1.98
2023-04-30T19:21:00.476Z,2.15
2023-04-30T19:23:07.833Z,1.80
2023-04-30T19:25:14.449Z,2.38
2023-04-30T19:27:19.623Z,1.90
2023-04-30T19:29:29.785Z,2.17
2023-04-30T19:31:39.165Z,2.00
2023-04-30T19:33:44.384Z,1.95
2023-04-30T19:35:53.382Z,2.25
2023-04-30T19:38:00.296Z,2.08
2023-04-30T19:40:05.546Z,2.22
2023-04-30T19:42:11.363Z,2.08
2023-04-30T19:44:20.273Z,2.30
2023-04-30T19:46:27.905Z,2.33
2023-04-30T19:48:33.872Z,2.20
2023-04-30T19:50:42.722Z,2.50
2023-04-30T19:52:52.984Z,2.42
2023-04-30T19:54:59.939Z,2.60
2023-04-30T19:57:05.453Z,2.72
2023-04-30T19:59:13.120Z,2.38
2023-04-30T20:01:20.522Z,2.67
2023-04-30T20:03:28.946Z,2.75
2023-04-30T20:05:39.834Z,2.28
2023-04-30T20:07:47.026Z,2.63
2023-04-30T20:09:52.418Z,3.20
2023-04-30T20:11:57.918Z,2.38
2023-04-30T20:14:05.765Z,2.50
2023-04-30T20:16:12.913Z,2.53
2023-04-30T20:18:21.183Z,2.13
2023-04-30T20:20:30.911Z,2.80
2023-04-30T20:22:36.184Z,2.25
2023-04-30T20:24:41.387Z,2.95
2023-04-30T20:26:46.498Z,2.63
2023-04-30T20:28:51.595Z,2.38
2023-04-30T20:30:59.443Z,3.03
2023-04-30T20:33:06.775Z,2.67
2023-04-30T20:35:14.401Z,2.35
2023-04-30T20:37:22.224Z,2.55
2023-04-30T20:41:36.061Z,2.65
2023-04-30T20:43:41.848Z,4.00
2023-04-30T20:45:48.696Z,4.07
2023-04-30T20:47:55.366Z,4.97
2023-04-30T20:50:01.160Z,3.40
2023-04-30T20:52:06.372Z,3.30
2023-04-30T20:54:15.287Z,3.88
2023-04-30T20:56:21.579Z,3.35
2023-04-30T20:58:27.580Z,3.83
2023-04-30T21:00:32.614Z,3.97
2023-04-30T21:02:44.033Z,3.30
2023-04-30T21:04:49.560Z,2.80
2023-04-30T21:06:55.048Z,3.47
2023-04-30T21:09:00.136Z,3.25
2023-04-30T21:11:09.465Z,3.22
2023-04-30T21:13:15.134Z,3.05
2023-04-30T21:15:26.087Z,3.13
2023-04-30T21:17:31.594Z,2.85
2023-04-30T21:19:41.043Z,3.55
2023-04-30T21:21:50.997Z,2.88
2023-04-30T21:23:56.014Z,2.70
2023-04-30T21:26:03.934Z,2.80
2023-04-30T21:28:14.478Z,3.20
2023-04-30T21:30:22.377Z,3.20
2023-04-30T21:32:32.184Z,3.25
2023-04-30T21:34:37.224Z,3.00
2023-04-30T21:36:42.972Z,2.72
2023-04-30T21:38:49.742Z,3.10
2023-04-30T21:41:01.888Z,3.72
2023-04-30T21:43:14.426Z,3.50
2023-04-30T21:45:20.828Z,4.05
2023-04-30T21:47:27.272Z,4.50
2023-04-30T21:49:32.572Z,3.88
2023-04-30T21:51:39.868Z,3.80
2023-04-30T21:53:45.810Z,3.60
2023-04-30T21:55:51.461Z,3.95
2023-04-30T21:57:59.676Z,3.55
2023-04-30T22:00:14.514Z,3.78
2023-04-30T22:02:27.496Z,3.30
2023-04-30T22:04:35.200Z,3.33
2023-04-30T22:10:59.841Z,3.67
2023-04-30T22:13:05.494Z,3.45
2023-04-30T22:15:16.498Z,3.55
2023-04-30T22:17:21.876Z,4.07
2023-04-30T22:19:26.970Z,3.65
2023-04-30T22:21:37.297Z,3.63
2023-04-30T22:23:42.565Z,3.70
2023-04-30T22:25:47.841Z,3.25
2023-04-30T22:27:54.455Z,3.53
2023-04-30T22:30:02.097Z,3.58
2023-04-30T22:32:10.103Z,3.35
2023-04-30T22:34:20.907Z,3.63
2023-04-30T22:36:25.923Z,3.38
2023-04-30T22:38:32.201Z,3.70
2023-04-30T22:40:40.722Z,3.55
2023-04-30T22:42:51.206Z,3.95
2023-04-30T22:44:57.165Z,3.75
2023-04-30T22:47:03.946Z,3.65
2023-04-30T22:49:27.506Z,3.53
2023-04-30T22:51:38.768Z,3.70
2023-04-30T22:53:44.047Z,3.45
2023-04-30T22:55:49.206Z,3.92
2023-04-30T22:57:59.793Z,3.67
2023-04-30T23:00:05.223Z,3.40
2023-04-30T23:02:10.598Z,3.83
2023-04-30T23:04:20.860Z,3.10
2023-04-30T23:06:30.929Z,3.78
2023-04-30T23:08:37.578Z,3.85
2023-04-30T23:10:46.147Z,4.38
2023-04-30T23:12:55.505Z,3.60
2023-04-30T23:15:00.559Z,3.08
2023-04-30T23:17:06.011Z,3.40
2023-04-30T23:19:12.054Z,3.83
2023-04-30T23:21:23.514Z,3.58
2023-04-30T23:23:29.640Z,3.83
2023-04-30T23:25:35.191Z,3.33
2023-04-30T23:27:40.821Z,3.40
2023-04-30T23:29:46.201Z,3.78
2023-04-30T23:31:53.999Z,3.80
2023-04-30T23:34:01.659Z,3.47
2023-04-30T23:36:08.009Z,3.63
2023-04-30T23:38:17.411Z,3.47
2023-04-30T23:40:23.416Z,3.50
2023-04-30T23:42:36.365Z,3.95
2023-04-30T23:44:41.615Z,2.95
2023-04-30T23:46:48.299Z,3.23
2023-04-30T23:48:57.902Z,3.28
2023-04-30T23:51:03.749Z,3.45
2023-04-30T23:53:09.339Z,3.17
2023-04-30T23:55:18.064Z,3.05
2023-04-30T23:57:23.323Z,3.30
2023-04-30T23:59:29.890Z,3.17
